createdAt,value
2019-01-11T00:00:51.518Z,13.40
2019-01-11T00:01:51.289Z,13.00
2019-01-11T00:02:51.273Z,13.10
2019-01-11T00:03:51.272Z,13.40
2019-01-11T00:04:51.259Z,13.50
2019-01-11T00:05:51.246Z,13.40
2019-01-11T00:06:51.443Z,14.20
2019-01-11T00:07:51.235Z,13.40
2019-01-11T00:08:51.241Z,13.90
2019-01-11T00:09:51.228Z,14.00
2019-01-11T00:10:51.207Z,13.90
2019-01-11T00:11:51.193Z,14.10
2019-01-11T00:12:51.191Z,13.90
2019-01-11T00:13:51.180Z,14.70
2019-01-11T00:14:51.177Z,14.30
2019-01-11T00:15:51.370Z,14.10
2019-01-11T00:16:51.154Z,13.20
2019-01-11T00:17:52.290Z,13.10
2019-01-11T00:18:51.148Z,13.80
2019-01-11T00:19:51.127Z,13.20
2019-01-11T00:20:51.119Z,14.40
2019-01-11T00:21:51.131Z,13.40
2019-01-11T00:22:51.156Z,14.10
2019-01-11T00:23:51.095Z,14.00
2019-01-11T00:24:51.299Z,15.60
2019-01-11T00:25:51.089Z,15.10
2019-01-11T00:26:51.088Z,15.90
2019-01-11T00:27:51.061Z,16.20
2019-01-11T00:28:51.075Z,16.80
2019-01-11T00:29:51.259Z,16.30
2019-01-11T00:30:51.032Z,17.70
2019-01-11T00:31:51.040Z,17.80
2019-01-11T00:32:51.017Z,19.70
2019-01-11T00:33:51.027Z,19.00
2019-01-11T00:34:51.213Z,18.70
2019-01-11T00:35:50.991Z,19.10
2019-01-11T00:36:50.999Z,19.80
2019-01-11T00:37:50.987Z,19.90
2019-01-11T00:38:50.987Z,20.10
2019-01-11T00:39:50.960Z,20.80
2019-01-11T00:40:50.963Z,20.30
2019-01-11T00:41:50.960Z,20.70
2019-01-11T00:42:51.142Z,21.60
2019-01-11T00:43:50.955Z,20.90
2019-01-11T00:44:51.115Z,21.00
2019-01-11T00:45:51.126Z,18.80
2019-01-11T00:46:50.904Z,18.10
2019-01-11T00:47:50.890Z,18.00
2019-01-11T00:48:51.809Z,17.50
2019-01-11T00:49:50.876Z,17.40
2019-01-11T00:50:50.880Z,17.60
2019-01-11T00:51:50.858Z,16.80
2019-01-11T00:52:50.850Z,17.00
2019-01-11T00:53:50.844Z,17.00
2019-01-11T00:54:50.836Z,16.90
2019-01-11T00:55:50.830Z,17.10
2019-01-11T00:56:50.817Z,17.20
2019-01-11T00:57:50.808Z,15.90
2019-01-11T00:58:50.798Z,17.00
2019-01-11T00:59:50.790Z,17.00
2019-01-11T01:00:50.788Z,16.70
2019-01-11T01:01:50.785Z,16.50
2019-01-11T01:02:50.761Z,16.60
2019-01-11T01:03:50.965Z,16.20
2019-01-11T01:04:50.761Z,16.30
2019-01-11T01:05:50.766Z,16.60
2019-01-11T01:06:50.727Z,17.10
2019-01-11T01:07:50.719Z,17.60
2019-01-11T01:08:50.712Z,17.90
2019-01-11T01:09:50.703Z,18.00
2019-01-11T01:10:50.698Z,18.40
2019-01-11T01:11:50.896Z,19.00
2019-01-11T01:12:50.698Z,18.30
2019-01-11T01:13:50.676Z,18.10
2019-01-11T01:14:50.888Z,18.50
2019-01-11T01:15:50.650Z,17.80
2019-01-11T01:16:50.683Z,18.10
2019-01-11T01:17:50.673Z,18.40
2019-01-11T01:18:50.881Z,18.30
2019-01-11T01:19:50.632Z,18.50
2019-01-11T01:20:50.614Z,18.00
2019-01-11T01:21:50.812Z,18.30
2019-01-11T01:22:50.805Z,19.00
2019-01-11T01:23:50.807Z,20.00
2019-01-11T01:24:50.586Z,20.60
2019-01-11T01:25:50.574Z,20.00
2019-01-11T01:26:50.572Z,21.20
2019-01-11T01:27:50.566Z,20.10
2019-01-11T01:28:50.558Z,21.10
2019-01-11T01:29:50.533Z,20.80
2019-01-11T01:30:50.547Z,20.60
2019-01-11T01:31:50.518Z,20.20
2019-01-11T01:32:50.534Z,20.20
2019-01-11T01:33:50.527Z,21.70
2019-01-11T01:34:50.493Z,21.80
2019-01-11T01:35:50.487Z,21.80
2019-01-11T01:36:50.479Z,22.30
2019-01-11T01:37:50.479Z,21.60
2019-01-11T01:38:50.460Z,23.00
2019-01-11T01:39:50.450Z,23.50
2019-01-11T01:40:50.443Z,24.90
2019-01-11T01:41:50.448Z,24.80
2019-01-11T01:42:50.461Z,25.00
2019-01-11T01:43:50.437Z,26.20
2019-01-11T01:44:50.427Z,24.60
2019-01-11T01:45:50.407Z,24.40
2019-01-11T01:46:50.409Z,24.00
2019-01-11T01:47:50.403Z,24.10
2019-01-11T01:48:50.388Z,24.30
2019-01-11T01:49:50.379Z,25.60
2019-01-11T01:50:50.372Z,27.30
2019-01-11T01:51:50.555Z,24.50
2019-01-11T01:52:50.353Z,25.00
2019-01-11T01:53:50.355Z,24.40
2019-01-11T01:54:51.121Z,26.90
2019-01-11T01:55:50.533Z,27.70
2019-01-11T01:56:50.522Z,27.60
2019-01-11T01:57:50.313Z,27.90
2019-01-11T01:58:50.313Z,27.60
2019-01-11T01:59:50.299Z,27.20
2019-01-11T02:00:50.286Z,26.60
2019-01-11T02:01:50.273Z,25.30
2019-01-11T02:02:50.307Z,25.60
2019-01-11T02:03:50.461Z,26.40
2019-01-11T02:04:50.272Z,25.90
2019-01-11T02:05:50.247Z,26.40
2019-01-11T02:06:50.246Z,25.80
2019-01-11T02:07:50.237Z,26.00
2019-01-11T02:08:50.420Z,27.20
2019-01-11T02:09:50.407Z,26.00
2019-01-11T02:10:50.215Z,26.30
2019-01-11T02:11:50.205Z,26.50
2019-01-11T02:12:50.184Z,26.30
2019-01-11T02:13:50.170Z,26.40
2019-01-11T02:14:50.192Z,26.80
2019-01-11T02:15:50.357Z,26.70
2019-01-11T02:16:50.151Z,27.20
2019-01-11T02:17:50.165Z,26.70
2019-01-11T02:18:50.159Z,27.90
2019-01-11T02:19:50.124Z,28.10
2019-01-11T02:20:50.132Z,27.60
2019-01-11T02:21:50.306Z,27.80
2019-01-11T02:22:50.123Z,28.20
2019-01-11T02:23:50.310Z,28.30
2019-01-11T02:24:50.082Z,28.60
2019-01-11T02:25:50.075Z,28.60
2019-01-11T02:26:50.089Z,29.50
2019-01-11T02:27:50.089Z,28.70
2019-01-11T02:28:50.059Z,30.80
2019-01-11T02:29:50.051Z,30.20
2019-01-11T02:30:50.030Z,30.20
2019-01-11T02:31:50.023Z,32.80
2019-01-11T02:32:52.962Z,33.00
2019-01-11T02:33:50.008Z,32.20
2019-01-11T02:34:50.002Z,31.80
2019-01-11T02:35:50.023Z,31.90
2019-01-11T02:36:50.003Z,32.00
2019-01-11T02:37:50.183Z,31.20
2019-01-11T02:38:49.971Z,32.40
2019-01-11T02:39:49.970Z,33.80
2019-01-11T02:40:49.943Z,34.10
2019-01-11T02:41:49.954Z,34.20
2019-01-11T02:42:49.935Z,33.50
2019-01-11T02:43:50.140Z,34.30
2019-01-11T02:44:49.919Z,33.30
2019-01-11T02:45:50.107Z,33.40
2019-01-11T02:46:49.914Z,34.30
2019-01-11T02:47:49.888Z,34.80
2019-01-11T02:48:49.893Z,34.10
2019-01-11T02:49:49.885Z,35.70
2019-01-11T02:50:50.080Z,35.30
2019-01-11T02:51:49.875Z,35.70
2019-01-11T02:52:49.861Z,34.20
2019-01-11T02:53:49.851Z,37.80
2019-01-11T02:54:49.838Z,37.10
2019-01-11T02:55:49.831Z,35.70
2019-01-11T02:56:49.816Z,36.30
2019-01-11T02:57:49.816Z,36.70
2019-01-11T02:58:50.013Z,38.50
2019-01-11T02:59:49.794Z,38.50
2019-01-11T03:00:49.789Z,37.70
2019-01-11T03:01:49.777Z,37.80
2019-01-11T03:02:49.761Z,37.20
2019-01-11T03:03:49.761Z,35.20
2019-01-11T03:04:49.745Z,35.40
2019-01-11T03:05:49.737Z,36.70
2019-01-11T03:06:49.742Z,35.50
2019-01-11T03:07:49.739Z,36.00
2019-01-11T03:08:49.720Z,37.80
2019-01-11T03:09:49.714Z,37.00
2019-01-11T03:10:49.697Z,35.60
2019-01-11T03:11:49.686Z,37.30
2019-01-11T03:12:49.691Z,36.90
2019-01-11T03:13:49.682Z,35.80
2019-01-11T03:14:49.867Z,36.20
2019-01-11T03:15:49.676Z,37.50
2019-01-11T03:16:49.673Z,37.10
2019-01-11T03:17:49.645Z,36.90
2019-01-11T03:18:49.681Z,37.90
2019-01-11T03:19:49.622Z,37.30
2019-01-11T03:20:49.620Z,38.10
2019-01-11T03:21:49.615Z,37.80
2019-01-11T03:22:49.806Z,37.90
2019-01-11T03:23:49.587Z,37.90
2019-01-11T03:24:49.579Z,38.30
2019-01-11T03:25:49.573Z,39.10
2019-01-11T03:26:49.573Z,37.20
2019-01-11T03:27:49.559Z,38.40
2019-01-11T03:28:49.555Z,40.10
2019-01-11T03:29:49.553Z,39.30
2019-01-11T03:30:49.743Z,37.90
2019-01-11T03:31:49.542Z,39.30
2019-01-11T03:32:49.521Z,38.50
2019-01-11T03:33:49.518Z,38.00
2019-01-11T03:34:50.653Z,39.90
2019-01-11T03:35:49.487Z,39.50
2019-01-11T03:36:49.486Z,40.30
2019-01-11T03:37:49.475Z,39.80
2019-01-11T03:38:49.473Z,39.80
2019-01-11T03:39:49.666Z,39.10
2019-01-11T03:40:49.449Z,40.10
2019-01-11T03:41:49.438Z,38.90
2019-01-11T03:42:49.435Z,40.70
2019-01-11T03:43:49.434Z,40.10
2019-01-11T03:44:49.410Z,41.70
2019-01-11T03:45:49.431Z,39.40
2019-01-11T03:46:49.395Z,40.10
2019-01-11T03:47:49.411Z,41.20
2019-01-11T03:48:49.384Z,41.60
2019-01-11T03:49:54.813Z,41.10
2019-01-11T03:50:49.376Z,42.00
2019-01-11T03:51:49.357Z,41.30
2019-01-11T03:52:49.371Z,42.40
2019-01-11T03:53:49.368Z,41.60
2019-01-11T03:54:49.328Z,43.40
2019-01-11T03:55:49.320Z,42.60
2019-01-11T03:56:49.312Z,42.50
2019-01-11T03:57:49.315Z,41.70
2019-01-11T03:58:49.504Z,41.80
2019-01-11T03:59:49.493Z,41.60
2019-01-11T04:00:49.502Z,42.80
2019-01-11T04:01:49.274Z,42.70
2019-01-11T04:02:49.468Z,43.30
2019-01-11T04:03:49.262Z,42.90
2019-01-11T04:04:49.264Z,44.60
2019-01-11T04:05:49.248Z,44.40
2019-01-11T04:06:49.247Z,44.40
2019-01-11T04:07:49.220Z,45.40
2019-01-11T04:08:49.222Z,44.10
2019-01-11T04:09:49.439Z,45.60
2019-01-11T04:10:49.203Z,44.70
2019-01-11T04:11:49.195Z,43.80
2019-01-11T04:12:49.202Z,44.10
2019-01-11T04:13:49.188Z,45.00
2019-01-11T04:14:49.174Z,44.60
2019-01-11T04:15:49.158Z,45.30
2019-01-11T04:16:49.150Z,46.30
2019-01-11T04:17:49.150Z,46.60
2019-01-11T04:18:49.141Z,47.00
2019-01-11T04:19:49.118Z,46.10
2019-01-11T04:20:49.119Z,46.00
2019-01-11T04:21:49.109Z,45.90
2019-01-11T04:22:49.092Z,47.90
2019-01-11T04:23:49.105Z,47.00
2019-01-11T04:24:49.092Z,47.10
2019-01-11T04:25:49.097Z,46.50
2019-01-11T04:26:49.073Z,44.50
2019-01-11T04:27:49.257Z,47.10
2019-01-11T04:28:49.266Z,46.50
2019-01-11T04:29:49.043Z,46.80
2019-01-11T04:30:49.036Z,45.30
2019-01-11T04:31:49.036Z,46.00
2019-01-11T04:32:49.012Z,46.20
2019-01-11T04:33:49.217Z,47.30
2019-01-11T04:34:49.008Z,47.30
2019-01-11T04:35:48.990Z,46.60
2019-01-11T04:36:49.220Z,46.60
2019-01-11T04:37:48.970Z,47.80
2019-01-11T04:38:48.981Z,46.00
2019-01-11T04:39:49.172Z,44.20
2019-01-11T04:40:48.946Z,45.40
2019-01-11T04:41:49.147Z,45.90
2019-01-11T04:42:48.927Z,45.30
2019-01-11T04:43:48.925Z,44.90
2019-01-11T04:44:48.919Z,45.00
2019-01-11T04:45:48.905Z,45.80
2019-01-11T04:46:48.901Z,47.00
2019-01-11T04:47:49.105Z,46.20
2019-01-11T04:48:49.110Z,46.60
2019-01-11T04:49:48.867Z,45.70
2019-01-11T04:50:48.866Z,45.40
2019-01-11T04:51:48.853Z,45.30
2019-01-11T04:52:48.844Z,45.00
2019-01-11T04:53:49.049Z,44.30
2019-01-11T04:54:48.857Z,45.90
2019-01-11T04:55:48.820Z,42.70
2019-01-11T04:56:48.813Z,43.50
2019-01-11T04:57:48.818Z,44.50
2019-01-11T04:58:48.806Z,44.50
2019-01-11T04:59:48.792Z,43.50
2019-01-11T05:00:48.783Z,46.30
2019-01-11T05:01:48.779Z,46.80
2019-01-11T05:02:48.775Z,44.30
2019-01-11T05:03:48.757Z,44.60
2019-01-11T05:04:48.956Z,44.80
2019-01-11T05:05:48.748Z,45.30
2019-01-11T05:06:48.729Z,42.60
2019-01-11T05:07:48.751Z,44.90
2019-01-11T05:08:48.716Z,44.70
2019-01-11T05:09:48.698Z,44.10
2019-01-11T05:10:48.900Z,43.60
2019-01-11T05:11:48.695Z,42.60
2019-01-11T05:12:48.681Z,43.20
2019-01-11T05:13:48.682Z,44.50
2019-01-11T05:14:48.689Z,43.60
2019-01-11T05:15:48.690Z,44.20
2019-01-11T05:16:48.642Z,43.70
2019-01-11T05:17:49.334Z,44.60
2019-01-11T05:18:48.625Z,42.30
2019-01-11T05:19:48.651Z,43.90
2019-01-11T05:20:48.607Z,40.80
2019-01-11T05:21:48.612Z,42.00
2019-01-11T05:22:48.616Z,42.40
2019-01-11T05:23:48.586Z,41.60
2019-01-11T05:24:48.585Z,40.90
2019-01-11T05:25:48.587Z,41.90
2019-01-11T05:26:48.581Z,42.30
2019-01-11T05:27:48.594Z,41.50
2019-01-11T05:28:48.606Z,41.40
2019-01-11T05:29:48.584Z,41.30
2019-01-11T05:30:48.576Z,39.90
2019-01-11T05:31:48.538Z,41.10
2019-01-11T05:32:48.738Z,40.70
2019-01-11T05:33:48.510Z,39.80
2019-01-11T05:34:48.506Z,37.80
2019-01-11T05:35:48.488Z,41.20
2019-01-11T05:36:48.484Z,41.40
2019-01-11T05:37:48.481Z,40.90
2019-01-11T05:38:48.473Z,38.10
2019-01-11T05:39:48.470Z,36.40
2019-01-11T05:40:48.468Z,37.00
2019-01-11T05:41:48.452Z,37.60
2019-01-11T05:42:48.453Z,35.70
2019-01-11T05:43:48.429Z,35.30
2019-01-11T05:44:48.415Z,35.20
2019-01-11T05:45:48.622Z,34.10
2019-01-11T05:46:48.603Z,34.00
2019-01-11T05:47:48.593Z,35.00
2019-01-11T05:48:48.385Z,34.20
2019-01-11T05:49:48.387Z,34.10
2019-01-11T05:50:48.381Z,34.30
2019-01-11T05:51:48.581Z,33.50
2019-01-11T05:52:48.358Z,33.80
2019-01-11T05:53:48.351Z,32.90
2019-01-11T05:54:48.344Z,33.00
2019-01-11T05:55:48.329Z,34.50
2019-01-11T05:56:48.328Z,34.20
2019-01-11T05:57:48.317Z,34.00
2019-01-11T05:58:48.308Z,33.20
2019-01-11T05:59:48.327Z,32.60
2019-01-11T06:00:48.289Z,33.00
2019-01-11T06:01:48.275Z,32.30
2019-01-11T06:02:48.486Z,30.60
2019-01-11T06:03:48.485Z,31.90
2019-01-11T06:04:48.283Z,31.70
2019-01-11T06:05:48.253Z,32.00
2019-01-11T06:06:48.235Z,31.90
2019-01-11T06:07:48.238Z,32.20
2019-01-11T06:08:48.238Z,32.60
2019-01-11T06:09:48.223Z,33.30
2019-01-11T06:10:48.214Z,31.80
2019-01-11T06:11:48.196Z,31.00
2019-01-11T06:12:48.204Z,32.40
2019-01-11T06:13:48.182Z,32.50
2019-01-11T06:14:48.178Z,32.70
2019-01-11T06:15:48.173Z,33.30
2019-01-11T06:16:48.179Z,32.50
2019-01-11T06:17:48.155Z,32.70
2019-01-11T06:18:48.149Z,32.80
2019-01-11T06:19:48.139Z,32.90
2019-01-11T06:20:48.125Z,33.70
2019-01-11T06:21:48.122Z,32.90
2019-01-11T06:22:48.112Z,33.90
2019-01-11T06:23:48.316Z,35.40
2019-01-11T06:24:48.096Z,34.30
2019-01-11T06:25:48.090Z,34.70
2019-01-11T06:26:48.079Z,36.10
2019-01-11T06:27:48.304Z,35.30
2019-01-11T06:28:48.092Z,35.30
2019-01-11T06:30:48.066Z,36.10
2019-01-11T06:31:48.034Z,35.10
2019-01-11T06:32:48.036Z,33.90
2019-01-11T06:33:48.230Z,34.00
2019-01-11T06:34:48.230Z,34.40
2019-01-11T06:35:48.012Z,34.30
2019-01-11T06:36:48.014Z,34.70
2019-01-11T06:37:48.205Z,35.80
2019-01-11T06:38:47.984Z,33.80
2019-01-11T06:39:47.970Z,35.60
2019-01-11T06:40:47.962Z,35.50
2019-01-11T06:41:47.963Z,33.50
2019-01-11T06:42:47.947Z,35.40
2019-01-11T06:43:47.935Z,36.70
2019-01-11T06:44:47.940Z,34.90
2019-01-11T06:45:47.942Z,35.10
2019-01-11T06:46:47.920Z,35.80
2019-01-11T06:47:47.909Z,35.40
2019-01-11T06:48:47.903Z,36.20
2019-01-11T06:49:48.094Z,36.60
2019-01-11T06:50:48.102Z,36.40
2019-01-11T06:51:47.879Z,38.00
2019-01-11T06:52:48.076Z,37.90
2019-01-11T06:53:48.070Z,37.50
2019-01-11T06:54:48.058Z,37.50
2019-01-11T06:55:48.850Z,38.40
2019-01-11T06:56:48.049Z,38.00
2019-01-11T06:57:47.851Z,36.70
2019-01-11T06:58:47.817Z,37.70
2019-01-11T06:59:47.815Z,37.30
2019-01-11T07:00:47.818Z,39.20
2019-01-11T07:01:47.793Z,37.60
2019-01-11T07:02:47.807Z,37.90
2019-01-11T07:03:47.777Z,39.20
2019-01-11T07:04:47.779Z,39.60
2019-01-11T07:05:47.768Z,38.60
2019-01-11T07:06:47.757Z,39.80
2019-01-11T07:07:47.746Z,39.50
2019-01-11T07:08:47.739Z,41.40
2019-01-11T07:09:47.734Z,37.80
2019-01-11T07:10:47.729Z,40.70
2019-01-11T07:11:47.919Z,41.30
2019-01-11T07:12:47.713Z,44.80
2019-01-11T07:13:47.707Z,39.00
2019-01-11T07:14:47.693Z,41.30
2019-01-11T07:15:47.682Z,43.00
2019-01-11T07:16:47.676Z,42.30
2019-01-11T07:17:47.667Z,42.30
2019-01-11T07:18:47.654Z,41.00
2019-01-11T07:19:47.659Z,45.50
2019-01-11T07:20:47.648Z,43.70
2019-01-11T07:21:47.646Z,41.90
2019-01-11T07:22:47.626Z,45.50
2019-01-11T07:23:47.625Z,44.90
2019-01-11T07:24:47.609Z,44.70
2019-01-11T07:25:47.826Z,42.50
2019-01-11T07:26:47.614Z,44.10
2019-01-11T07:27:47.583Z,41.80
2019-01-11T07:28:47.589Z,41.40
2019-01-11T07:29:47.569Z,41.30
2019-01-11T07:30:47.769Z,41.40
2019-01-11T07:31:47.553Z,42.10
2019-01-11T07:32:47.549Z,44.70
2019-01-11T07:33:47.533Z,45.40
2019-01-11T07:34:47.528Z,44.40
2019-01-11T07:35:47.536Z,46.20
2019-01-11T07:36:47.516Z,47.00
2019-01-11T07:37:47.713Z,42.70
2019-01-11T07:38:47.502Z,43.90
2019-01-11T07:39:47.485Z,46.40
2019-01-11T07:40:47.495Z,45.20
2019-01-11T07:41:47.470Z,47.30
2019-01-11T07:42:47.471Z,46.00
2019-01-11T07:43:47.467Z,43.50
2019-01-11T07:44:47.454Z,44.90
2019-01-11T07:45:47.459Z,44.40
2019-01-11T07:46:47.434Z,46.30
2019-01-11T07:47:47.426Z,45.40
2019-01-11T07:48:47.421Z,48.50
2019-01-11T07:49:47.423Z,46.70
2019-01-11T07:50:49.396Z,46.00
2019-01-11T07:51:47.392Z,46.60
2019-01-11T07:52:47.387Z,43.80
2019-01-11T07:53:47.381Z,45.50
2019-01-11T07:54:47.374Z,43.50
2019-01-11T07:55:47.582Z,43.60
2019-01-11T07:56:47.354Z,45.80
2019-01-11T07:57:47.350Z,45.10
2019-01-11T07:58:47.350Z,44.30
2019-01-11T07:59:47.334Z,45.20
2019-01-11T08:00:47.526Z,45.60
2019-01-11T08:01:47.337Z,44.60
2019-01-11T08:02:47.514Z,42.40
2019-01-11T08:03:47.297Z,43.90
2019-01-11T08:04:47.320Z,43.90
2019-01-11T08:05:47.287Z,43.80
2019-01-11T08:06:47.486Z,47.90
2019-01-11T08:07:47.474Z,49.60
2019-01-11T08:08:47.287Z,41.50
2019-01-11T08:09:47.264Z,42.40
2019-01-11T08:10:47.243Z,49.30
2019-01-11T08:11:47.241Z,46.50
2019-01-11T08:12:47.259Z,41.70
2019-01-11T08:13:47.220Z,40.80
2019-01-11T08:14:47.437Z,42.50
2019-01-11T08:15:47.422Z,42.70
2019-01-11T08:16:47.402Z,45.80
2019-01-11T08:17:47.216Z,42.80
2019-01-11T08:18:47.185Z,45.30
2019-01-11T08:19:47.190Z,41.80
2019-01-11T08:20:47.165Z,43.50
2019-01-11T08:21:47.198Z,43.60
2019-01-11T08:22:47.146Z,41.70
2019-01-11T08:23:47.163Z,40.90
2019-01-11T08:24:47.154Z,42.30
2019-01-11T08:25:47.164Z,44.10
2019-01-11T08:26:47.138Z,39.60
2019-01-11T08:27:47.119Z,42.20
2019-01-11T08:28:47.111Z,42.00
2019-01-11T08:29:47.097Z,44.70
2019-01-11T08:30:47.086Z,47.00
2019-01-11T08:31:47.106Z,47.80
2019-01-11T08:32:47.086Z,41.80
2019-01-11T08:33:47.078Z,41.80
2019-01-11T08:34:47.056Z,41.40
2019-01-11T08:35:47.051Z,41.20
2019-01-11T08:36:47.042Z,45.50
2019-01-11T08:37:47.066Z,40.80
2019-01-11T08:38:47.031Z,40.30
2019-01-11T08:39:47.018Z,40.20
2019-01-11T08:40:47.019Z,40.90
2019-01-11T08:41:47.001Z,44.30
2019-01-11T08:42:46.999Z,41.50
2019-01-11T08:43:47.196Z,39.30
2019-01-11T08:44:46.982Z,39.50
2019-01-11T08:45:46.974Z,40.00
2019-01-11T08:46:46.968Z,41.60
2019-01-11T08:47:46.957Z,39.30
2019-01-11T08:48:47.160Z,39.60
2019-01-11T08:49:46.947Z,39.90
2019-01-11T08:50:46.936Z,40.60
2019-01-11T08:51:46.937Z,38.50
2019-01-11T08:52:46.917Z,37.00
2019-01-11T08:53:47.128Z,38.90
2019-01-11T08:54:46.913Z,38.10
2019-01-11T08:55:46.914Z,38.70
2019-01-11T08:56:46.886Z,38.10
2019-01-11T08:57:46.876Z,38.90
2019-01-11T08:58:46.875Z,40.10
2019-01-11T08:59:46.878Z,39.00
2019-01-11T09:00:46.856Z,37.90
2019-01-11T09:01:46.845Z,41.30
2019-01-11T09:02:47.041Z,41.10
2019-01-11T09:03:47.037Z,39.10
2019-01-11T09:04:46.821Z,37.60
2019-01-11T09:05:47.024Z,39.70
2019-01-11T09:06:47.015Z,40.20
2019-01-11T09:07:46.805Z,41.10
2019-01-11T09:08:46.802Z,40.00
2019-01-11T09:09:46.794Z,40.70
2019-01-11T09:10:46.807Z,42.00
2019-01-11T09:11:46.775Z,40.60
2019-01-11T09:12:46.776Z,42.20
2019-01-11T09:13:46.776Z,40.50
2019-01-11T09:14:46.783Z,41.80
2019-01-11T09:15:46.754Z,41.80
2019-01-11T09:16:46.964Z,42.10
2019-01-11T09:17:46.725Z,41.10
2019-01-11T09:18:46.712Z,43.60
2019-01-11T09:19:46.923Z,43.20
2019-01-11T09:20:46.710Z,42.90
2019-01-11T09:21:46.908Z,41.80
2019-01-11T09:22:46.683Z,41.30
2019-01-11T09:23:46.673Z,40.40
2019-01-11T09:24:46.664Z,42.00
2019-01-11T09:25:46.677Z,42.70
2019-01-11T09:26:46.858Z,43.40
2019-01-11T09:27:46.663Z,43.10
2019-01-11T09:28:46.652Z,43.80
2019-01-11T09:29:46.640Z,43.50
2019-01-11T09:30:46.828Z,41.50
2019-01-11T09:31:46.611Z,44.40
2019-01-11T09:32:46.623Z,42.10
2019-01-11T09:33:46.806Z,41.70
2019-01-11T09:34:46.611Z,40.00
2019-01-11T09:35:46.800Z,40.90
2019-01-11T09:36:46.589Z,45.20
2019-01-11T09:37:46.582Z,41.40
2019-01-11T09:38:46.582Z,40.50
2019-01-11T09:39:46.552Z,44.50
2019-01-11T09:40:46.747Z,45.00
2019-01-11T09:41:46.767Z,40.80
2019-01-11T09:42:46.534Z,43.70
2019-01-11T09:43:46.521Z,45.90
2019-01-11T09:44:46.535Z,43.30
2019-01-11T09:45:46.513Z,41.90
2019-01-11T09:46:46.519Z,42.70
2019-01-11T09:47:46.495Z,46.20
2019-01-11T09:48:46.488Z,46.50
2019-01-11T09:49:46.690Z,45.20
2019-01-11T09:50:46.467Z,43.80
2019-01-11T09:51:46.472Z,47.30
2019-01-11T09:52:46.476Z,45.60
2019-01-11T09:53:46.473Z,43.90
2019-01-11T09:54:46.461Z,44.60
2019-01-11T09:55:46.445Z,47.60
2019-01-11T09:56:46.437Z,44.10
2019-01-11T09:57:46.432Z,44.70
2019-01-11T09:58:46.613Z,43.30
2019-01-11T09:59:46.415Z,47.90
2019-01-11T10:00:46.405Z,44.80
2019-01-11T10:01:46.585Z,43.20
2019-01-11T10:02:46.377Z,42.60
2019-01-11T10:03:46.391Z,44.00
2019-01-11T10:04:46.378Z,44.50
2019-01-11T10:05:46.574Z,43.90
2019-01-11T10:06:46.363Z,45.20
2019-01-11T10:07:46.545Z,44.00
2019-01-11T10:08:46.342Z,44.30
2019-01-11T10:09:46.323Z,44.90
2019-01-11T10:10:46.320Z,42.80
2019-01-11T10:11:46.319Z,46.90
2019-01-11T10:12:46.312Z,46.70
2019-01-11T10:13:46.296Z,43.10
2019-01-11T10:14:46.494Z,48.20
2019-01-11T10:15:46.296Z,44.50
2019-01-11T10:16:46.275Z,48.70
2019-01-11T10:17:46.467Z,48.80
2019-01-11T10:18:46.261Z,44.90
2019-01-11T10:19:46.465Z,44.00
2019-01-11T10:20:46.248Z,47.00
2019-01-11T10:21:46.230Z,46.90
2019-01-11T10:22:46.221Z,46.60
2019-01-11T10:23:46.217Z,45.30
2019-01-11T10:24:46.225Z,46.60
2019-01-11T10:25:46.227Z,47.50
2019-01-11T10:26:46.194Z,45.60
2019-01-11T10:27:46.401Z,48.10
2019-01-11T10:28:46.180Z,45.80
2019-01-11T10:29:46.181Z,47.90
2019-01-11T10:30:46.168Z,45.90
2019-01-11T10:31:46.165Z,50.50
2019-01-11T10:32:46.162Z,51.80
2019-01-11T10:33:46.151Z,46.70
2019-01-11T10:34:46.354Z,46.50
2019-01-11T10:35:46.144Z,50.40
2019-01-11T10:36:46.120Z,52.40
2019-01-11T10:37:46.115Z,50.80
2019-01-11T10:38:46.119Z,48.80
2019-01-11T10:39:46.100Z,52.10
2019-01-11T10:40:46.097Z,47.10
2019-01-11T10:41:46.087Z,51.90
2019-01-11T10:42:46.074Z,46.70
2019-01-11T10:43:46.071Z,46.30
2019-01-11T10:44:46.072Z,48.00
2019-01-11T10:45:46.061Z,45.70
2019-01-11T10:46:49.219Z,48.50
2019-01-11T10:47:46.053Z,48.40
2019-01-11T10:48:46.032Z,48.70
2019-01-11T10:49:46.235Z,49.90
2019-01-11T10:50:46.025Z,48.30
2019-01-11T10:51:46.214Z,48.70
2019-01-11T10:52:46.219Z,46.10
2019-01-11T10:53:45.993Z,50.00
2019-01-11T10:54:45.992Z,52.30
2019-01-11T10:55:46.003Z,52.50
2019-01-11T10:56:45.971Z,51.00
2019-01-11T10:57:45.985Z,49.40
2019-01-11T10:58:45.963Z,47.80
2019-01-11T10:59:45.949Z,48.90
2019-01-11T11:00:45.949Z,50.60
2019-01-11T11:01:46.148Z,49.60
2019-01-11T11:02:45.927Z,49.00
2019-01-11T11:03:45.922Z,48.70
2019-01-11T11:04:45.921Z,50.10
2019-01-11T11:05:45.908Z,51.50
2019-01-11T11:06:46.120Z,48.80
2019-01-11T11:07:45.893Z,49.80
2019-01-11T11:08:45.882Z,47.60
2019-01-11T11:09:45.883Z,51.20
2019-01-11T11:10:46.071Z,50.90
2019-01-11T11:11:45.859Z,51.30
2019-01-11T11:12:46.052Z,49.90
2019-01-11T11:13:45.843Z,51.10
2019-01-11T11:14:45.839Z,52.30
2019-01-11T11:15:45.852Z,52.60
2019-01-11T11:16:45.826Z,53.30
2019-01-11T11:17:45.829Z,51.70
2019-01-11T11:18:45.809Z,52.00
2019-01-11T11:19:46.013Z,54.10
2019-01-11T11:20:45.804Z,56.90
2019-01-11T11:21:45.798Z,54.40
2019-01-11T11:22:45.782Z,53.70
2019-01-11T11:23:45.787Z,52.40
2019-01-11T11:24:45.774Z,54.90
2019-01-11T11:25:45.766Z,55.80
2019-01-11T11:26:45.958Z,54.10
2019-01-11T11:27:45.748Z,56.10
2019-01-11T11:28:45.743Z,57.50
2019-01-11T11:29:45.755Z,54.70
2019-01-11T11:30:45.719Z,56.80
2019-01-11T11:31:45.720Z,59.70
2019-01-11T11:32:45.708Z,54.70
2019-01-11T11:33:45.703Z,55.60
2019-01-11T11:34:45.697Z,57.90
2019-01-11T11:35:45.890Z,58.20
2019-01-11T11:36:45.878Z,58.10
2019-01-11T11:37:45.681Z,56.70
2019-01-11T11:38:45.677Z,57.50
2019-01-11T11:39:45.661Z,59.60
2019-01-11T11:40:45.643Z,59.90
2019-01-11T11:41:45.652Z,59.90
2019-01-11T11:42:45.637Z,57.40
2019-01-11T11:43:45.637Z,58.30
2019-01-11T11:44:45.620Z,58.90
2019-01-11T11:45:45.607Z,59.70
2019-01-11T11:46:45.624Z,61.00
2019-01-11T11:47:45.795Z,60.60
2019-01-11T11:48:45.610Z,61.00
2019-01-11T11:49:45.804Z,60.60
2019-01-11T11:50:45.577Z,62.70
2019-01-11T11:51:45.577Z,62.10
2019-01-11T11:52:45.764Z,63.80
2019-01-11T11:53:45.554Z,62.50
2019-01-11T11:54:45.555Z,61.60
2019-01-11T11:55:45.541Z,61.30
2019-01-11T11:56:45.555Z,62.30
2019-01-11T11:57:45.548Z,72.10
2019-01-11T11:58:45.726Z,65.70
2019-01-11T11:59:45.507Z,62.10
2019-01-11T12:00:45.501Z,63.50
2019-01-11T12:01:46.735Z,69.50
2019-01-11T12:02:45.483Z,61.30
2019-01-11T12:03:45.493Z,60.30
2019-01-11T12:04:45.471Z,61.90
2019-01-11T12:05:45.476Z,66.60
2019-01-11T12:06:45.465Z,69.80
2019-01-11T12:07:45.470Z,64.30
2019-01-11T12:08:45.440Z,67.90
2019-01-11T12:09:45.438Z,66.30
2019-01-11T12:10:45.436Z,66.20
2019-01-11T12:11:45.426Z,62.80
2019-01-11T12:12:45.432Z,63.90
2019-01-11T12:13:45.421Z,62.40
2019-01-11T12:14:45.434Z,64.10
2019-01-11T12:15:45.408Z,66.20
2019-01-11T12:16:45.412Z,75.10
2019-01-11T12:17:45.390Z,64.70
2019-01-11T12:18:45.400Z,66.40
2019-01-11T12:19:45.374Z,67.20
2019-01-11T12:20:45.360Z,65.30
2019-01-11T12:21:47.753Z,65.50
2019-01-11T12:22:45.350Z,66.10
2019-01-11T12:23:45.333Z,65.70
2019-01-11T12:24:45.553Z,65.70
2019-01-11T12:25:45.346Z,70.10
2019-01-11T12:26:45.314Z,68.90
2019-01-11T12:27:45.518Z,69.60
2019-01-11T12:28:45.303Z,69.90
2019-01-11T12:29:45.502Z,68.50
2019-01-11T12:30:45.283Z,67.80
2019-01-11T12:31:45.499Z,68.80
2019-01-11T12:32:45.274Z,67.70
2019-01-11T12:33:45.283Z,68.90
2019-01-11T12:34:45.254Z,68.80
2019-01-11T12:35:45.270Z,68.50
2019-01-11T12:36:45.245Z,66.80
2019-01-11T12:37:45.235Z,63.90
2019-01-11T12:38:45.254Z,61.50
2019-01-11T12:39:45.426Z,61.60
2019-01-11T12:40:45.229Z,63.70
2019-01-11T12:41:45.238Z,61.00
2019-01-11T12:42:45.201Z,60.80
2019-01-11T12:43:45.393Z,59.40
2019-01-11T12:44:45.189Z,60.90
2019-01-11T12:45:45.194Z,61.30
2019-01-11T12:46:45.400Z,55.10
2019-01-11T12:47:45.192Z,54.70
2019-01-11T12:48:45.160Z,54.60
2019-01-11T12:49:45.161Z,54.40
2019-01-11T12:50:45.149Z,55.60
2019-01-11T12:51:45.359Z,55.20
2019-01-11T12:52:45.148Z,54.20
2019-01-11T12:53:45.133Z,54.00